Time;durP1;ratioP1;P1;durP2;ratioP2;P2;SDS_P1;SDS_P2;PMS_P1;PMS_P2;Temp;Humidity;BMP_temperature;BMP_pressure;BME280_temperature;BME280_humidity;BME280_pressure;Samples;Min_cycle;Max_cycle;Signal;HPM_P1;HPM_P2
2021/12/14 00:01:38;;;;;;;10.07;3.47;;;;;;;;;;4931521;29;20058;-68
2021/12/14 00:04:20;;;;;;;10.43;4.47;;;;;;;;;;4932665;29;20448;-70
2021/12/14 00:06:51;;;;;;;7.97;4.10;;;;;;;;;;4947817;28;20066;-68
2021/12/14 00:09:28;;;;;;;9.75;3.88;;;;;;;;;;4932341;29;20071;-67
2021/12/14 00:15:06;;;;;;;13.77;4.03;;;;;;;;;;4932592;29;20079;-68
2021/12/14 00:17:53;;;;;;;11.20;4.32;;;;;;;;;;4900358;29;20083;-69
2021/12/14 00:20:40;;;;;;;13.30;5.70;;;;;;;;;;4932357;29;20412;-67
2021/12/14 00:25:53;;;;;;;13.07;5.75;;;;;;;;;;4956869;28;20055;-67
2021/12/14 00:28:31;;;;;;;15.38;6.18;;;;;;;;;;4970421;28;20042;-68
2021/12/14 00:31:05;;;;;;;19.80;7.57;;;;;;;;;;4969899;28;20043;-68
2021/12/14 00:33:39;;;;;;;17.10;7.22;;;;;;;;;;4942620;29;20043;-68
2021/12/14 00:36:12;;;;;;;11.57;6.00;;;;;;;;;;4937386;29;20063;-67
2021/12/14 00:38:45;;;;;;;16.27;6.32;;;;;;;;;;4957681;28;20054;-67
2021/12/14 00:41:20;;;;;;;15.95;7.55;;;;;;;;;;4987523;28;20402;-69
2021/12/14 00:43:51;;;;;;;13.63;7.10;;;;;;;;;;4999136;28;20436;-66
2021/12/14 00:46:23;;;;;;;15.27;6.45;;;;;;;;;;4980426;28;20520;-66
2021/12/14 00:48:54;;;;;;;13.27;6.10;;;;;;;;;;5013081;28;20057;-68
2021/12/14 00:51:28;;;;;;;11.65;4.97;;;;;;;;;;4969990;28;20050;-67
2021/12/14 00:54:00;;;;;;;12.90;3.90;;;;;;;;;;4969683;28;20051;-67
2021/12/14 00:56:33;;;;;;;9.05;3.47;;;;;;;;;;4929122;29;20055;-68
2021/12/14 00:59:05;;;;;;;9.95;4.55;;;;;;;;;;4892835;29;20063;-69
2021/12/14 01:01:50;;;;;;;10.55;3.97;;;;;;;;;;4891536;29;20065;-67
2021/12/14 01:04:45;;;;;;;7.47;4.30;;;;;;;;;;4911330;29;20410;-67
2021/12/14 01:07:19;;;;;;;6.90;4.00;;;;;;;;;;4910985;29;20428;-67
2021/12/14 01:09:56;;;;;;;9.27;3.65;;;;;;;;;;4893193;29;20060;-67
2021/12/14 01:12:47;;;;;;;7.35;4.18;;;;;;;;;;4911162;29;20060;-68
2021/12/14 01:15:42;;;;;;;;;;;;;;;;;;4928098;29;20741;-67
2021/12/14 01:18:33;;;;;;;9.30;3.80;;;;;;;;;;4914305;29;19923;-68
2021/12/14 01:21:44;;;;;;;10.40;4.82;;;;;;;;;;4893807;29;20248;-70
2021/12/14 01:24:41;;;;;;;11.65;4.75;;;;;;;;;;4861716;29;20064;-69
2021/12/14 01:27:17;;;;;;;15.75;4.47;;;;;;;;;;4858882;29;20533;-72
2021/12/14 01:29:53;;;;;;;9.05;3.80;;;;;;;;;;4858371;29;20542;-71
2021/12/14 01:32:28;;;;;;;7.10;3.88;;;;;;;;;;4874261;29;20057;-70
2021/12/14 01:34:59;;;;;;;11.90;4.43;;;;;;;;;;4892406;29;20208;-73
2021/12/14 01:37:40;;;;;;;11.68;4.32;;;;;;;;;;4895840;29;20534;-69
2021/12/14 01:40:29;;;;;;;9.20;4.50;;;;;;;;;;4915018;29;20181;-69
2021/12/14 01:42:59;;;;;;;14.15;4.60;;;;;;;;;;4931584;29;20063;-69
2021/12/14 01:45:30;;;;;;;11.48;4.70;;;;;;;;;;4895411;29;20528;-70
2021/12/14 01:48:03;;;;;;;10.90;4.30;;;;;;;;;;4877134;29;20549;-69
2021/12/14 01:50:57;;;;;;;11.02;4.63;;;;;;;;;;4876789;29;20053;-69
2021/12/14 01:53:54;;;;;;;17.88;4.65;;;;;;;;;;4895709;29;20059;-71
2021/12/14 01:56:28;;;;;;;10.27;4.50;;;;;;;;;;4899092;29;20064;-69
2021/12/14 01:59:06;;;;;;;11.38;4.93;;;;;;;;;;4888052;29;20555;-71
2021/12/14 02:01:56;;;;;;;11.75;5.10;;;;;;;;;;4886622;29;20081;-68
2021/12/14 02:04:28;;;;;;;10.75;4.53;;;;;;;;;;4875063;29;20061;-69
2021/12/14 02:07:02;;;;;;;13.00;4.32;;;;;;;;;;4876478;29;20064;-71
2021/12/14 02:09:37;;;;;;;8.05;4.10;;;;;;;;;;4911524;29;20048;-69
2021/12/14 02:12:12;;;;;;;11.60;3.90;;;;;;;;;;4929811;29;20060;-71
2021/12/14 02:14:44;;;;;;;11.27;4.13;;;;;;;;;;4895331;29;20056;-69
2021/12/14 02:17:19;;;;;;;8.60;4.38;;;;;;;;;;4904416;29;20092;-69
2021/12/14 02:19:50;;;;;;;10.35;4.68;;;;;;;;;;4924013;29;20472;-72
2021/12/14 02:22:21;;;;;;;11.18;4.22;;;;;;;;;;4940925;29;20058;-69
2021/12/14 02:24:52;;;;;;;15.40;5.05;;;;;;;;;;4914467;29;20409;-71
2021/12/14 02:27:23;;;;;;;8.85;4.32;;;;;;;;;;4903064;29;20048;-72
2021/12/14 02:30:01;;;;;;;12.25;4.05;;;;;;;;;;4894546;29;20049;-73
2021/12/14 02:32:31;;;;;;;8.07;4.35;;;;;;;;;;4905558;29;20057;-71
2021/12/14 02:35:09;;;;;;;8.82;4.30;;;;;;;;;;4902535;29;20060;-70
2021/12/14 02:37:54;;;;;;;8.18;4.13;;;;;;;;;;4889321;29;20065;-71
2021/12/14 02:43:51;;;;;;;8.02;3.95;;;;;;;;;;4918136;29;20075;-69
2021/12/14 02:46:39;;;;;;;8.57;3.85;;;;;;;;;;4921634;29;20051;-69
2021/12/14 02:49:16;;;;;;;10.80;3.60;;;;;;;;;;4956284;28;20070;-69
2021/12/14 02:52:06;;;;;;;8.55;3.88;;;;;;;;;;4914825;29;20048;-69
2021/12/14 02:54:45;;;;;;;9.15;3.88;;;;;;;;;;4908607;29;20065;-69
2021/12/14 02:57:20;;;;;;;11.80;4.07;;;;;;;;;;4914477;29;20056;-69
2021/12/14 02:59:52;;;;;;;12.13;4.28;;;;;;;;;;4922648;29;20048;-69
2021/12/14 03:02:32;;;;;;;10.63;4.00;;;;;;;;;;4936534;29;20055;-69
2021/12/14 03:05:15;;;;;;;9.93;4.03;;;;;;;;;;4908149;29;20063;-69
2021/12/14 03:07:51;;;;;;;10.45;4.13;;;;;;;;;;4872283;29;20556;-69
2021/12/14 03:10:50;;;;;;;8.50;4.53;;;;;;;;;;4895311;29;20056;-69
2021/12/14 03:13:22;;;;;;;16.38;5.15;;;;;;;;;;4895058;29;20049;-69
2021/12/14 03:15:57;;;;;;;17.60;5.80;;;;;;;;;;4891917;29;20048;-69
2021/12/14 03:18:36;;;;;;;11.02;5.30;;;;;;;;;;4929130;29;20040;-69
2021/12/14 03:21:14;;;;;;;11.10;5.93;;;;;;;;;;4924066;29;20052;-68
2021/12/14 03:23:49;;;;;;;13.20;6.18;;;;;;;;;;4923500;29;20055;-69
2021/12/14 03:26:25;;;;;;;16.20;6.57;;;;;;;;;;4913293;29;20044;-69
2021/12/14 03:28:59;;;;;;;13.90;7.20;;;;;;;;;;4911652;29;20419;-69
2021/12/14 03:31:33;;;;;;;14.27;6.20;;;;;;;;;;4901769;29;20209;-69
2021/12/14 03:34:21;;;;;;;12.23;6.00;;;;;;;;;;4932972;29;20056;-70
2021/12/14 03:36:56;;;;;;;14.35;6.57;;;;;;;;;;4937054;29;20439;-68
2021/12/14 03:39:39;;;;;;;16.35;7.00;;;;;;;;;;4952002;29;20051;-69
2021/12/14 03:42:15;;;;;;;16.55;7.70;;;;;;;;;;4946563;29;20055;-68
2021/12/14 03:44:53;;;;;;;21.10;8.23;;;;;;;;;;4936871;29;20491;-69
2021/12/14 03:47:43;;;;;;;11.93;6.55;;;;;;;;;;4951912;28;20066;-69
2021/12/14 03:50:20;;;;;;;13.70;7.72;;;;;;;;;;4931389;29;20104;-69
2021/12/14 03:52:50;;;;;;;15.48;7.32;;;;;;;;;;4933095;29;20504;-69
2021/12/14 03:55:28;;;;;;;18.00;7.68;;;;;;;;;;4928925;29;20060;-72
2021/12/14 03:58:00;;;;;;;17.45;7.60;;;;;;;;;;4920456;29;20059;-69
2021/12/14 04:00:38;;;;;;;14.63;7.35;;;;;;;;;;4951750;28;20039;-69
2021/12/14 04:03:11;;;;;;;14.88;7.18;;;;;;;;;;4955409;28;20455;-68
2021/12/14 04:05:57;;;;;;;19.92;7.82;;;;;;;;;;4970775;28;20065;-70
2021/12/14 04:08:31;;;;;;;14.35;7.25;;;;;;;;;;4951800;29;20055;-69
2021/12/14 04:11:05;;;;;;;15.20;7.82;;;;;;;;;;4932009;29;20055;-69
2021/12/14 04:13:39;;;;;;;15.18;7.65;;;;;;;;;;4951305;29;20055;-69
2021/12/14 04:16:16;;;;;;;12.57;7.00;;;;;;;;;;4914097;29;20063;-70
2021/12/14 04:18:49;;;;;;;14.50;7.05;;;;;;;;;;4913700;29;20056;-70
2021/12/14 04:21:24;;;;;;;15.25;8.45;;;;;;;;;;4909549;29;20455;-71
2021/12/14 04:23:56;;;;;;;11.95;6.93;;;;;;;;;;4875558;29;20057;-71
2021/12/14 04:26:27;;;;;;;16.33;8.57;;;;;;;;;;4875354;29;20080;-71
2021/12/14 04:29:00;;;;;;;19.23;8.27;;;;;;;;;;4890403;29;20048;-71
2021/12/14 04:31:37;;;;;;;15.93;8.00;;;;;;;;;;4875281;29;20057;-72
2021/12/14 04:34:11;;;;;;;15.57;7.53;;;;;;;;;;4894164;29;20052;-70
2021/12/14 04:36:44;;;;;;;18.08;8.57;;;;;;;;;;4888467;29;20061;-71
2021/12/14 04:53:47;;;;;;;12.65;6.75;;;;;;;;;;4893710;29;20060;-71
2021/12/14 04:56:37;;;;;;;14.85;8.27;;;;;;;;;;4931209;29;20432;-70
2021/12/14 04:59:17;;;;;;;13.27;7.65;;;;;;;;;;4910945;29;20425;-70
2021/12/14 05:01:49;;;;;;;12.75;6.28;;;;;;;;;;4878099;29;20044;-71
2021/12/14 05:04:38;;;;;;;12.38;6.32;;;;;;;;;;4931965;29;20055;-71
2021/12/14 05:10:14;;;;;;;10.93;6.20;;;;;;;;;;4858939;29;20050;-71
2021/12/14 05:12:55;;;;;;;14.05;7.65;;;;;;;;;;4840190;29;20422;-71
2021/12/14 05:15:35;;;;;;;17.15;6.82;;;;;;;;;;4856560;29;20056;-72
2021/12/14 05:18:15;;;;;;;14.15;7.05;;;;;;;;;;4870939;29;20434;-71
2021/12/14 05:20:47;;;;;;;13.18;6.40;;;;;;;;;;4874063;29;20468;-71
2021/12/14 05:23:27;;;;;;;11.73;6.20;;;;;;;;;;4869673;29;20061;-71
2021/12/14 05:26:01;;;;;;;10.70;5.72;;;;;;;;;;4853125;29;20066;-72
2021/12/14 05:28:33;;;;;;;15.15;5.82;;;;;;;;;;4835239;29;20062;-71
2021/12/14 05:31:11;;;;;;;10.63;6.15;;;;;;;;;;4830560;29;20054;-71
2021/12/14 05:33:47;;;;;;;11.68;5.60;;;;;;;;;;4863556;29;20057;-71
2021/12/14 05:36:31;;;;;;;10.48;5.68;;;;;;;;;;4893272;29;20063;-72
2021/12/14 05:44:54;;;;;;;10.48;5.53;;;;;;;;;;4837061;29;20054;-72
2021/12/14 05:47:27;;;;;;;10.50;5.55;;;;;;;;;;4806948;29;20047;-71
2021/12/14 05:50:08;;;;;;;10.60;5.38;;;;;;;;;;4838676;29;20065;-72
2021/12/14 05:52:38;;;;;;;13.65;5.50;;;;;;;;;;4838291;29;20058;-72
2021/12/14 05:55:19;;;;;;;10.25;5.50;;;;;;;;;;4856127;29;20065;-71
2021/12/14 05:57:51;;;;;;;10.27;5.43;;;;;;;;;;4874737;29;20060;-71
2021/12/14 06:00:25;;;;;;;10.45;6.50;;;;;;;;;;4887460;29;20446;-72
2021/12/14 06:03:03;;;;;;;13.52;5.40;;;;;;;;;;4850107;29;20069;-70
2021/12/14 06:05:34;;;;;;;13.35;5.63;;;;;;;;;;4807964;29;20566;-71
2021/12/14 06:08:06;;;;;;;12.52;6.20;;;;;;;;;;4835104;29;20058;-71
2021/12/14 06:10:38;;;;;;;11.27;5.90;;;;;;;;;;4889978;29;20053;-70
2021/12/14 06:13:08;;;;;;;8.77;5.43;;;;;;;;;;4859574;29;20061;-71
2021/12/14 06:15:38;;;;;;;11.00;5.63;;;;;;;;;;4830028;29;20072;-71
2021/12/14 06:18:23;;;;;;;12.18;6.03;;;;;;;;;;4912961;29;20044;-71
2021/12/14 06:21:13;;;;;;;10.32;5.20;;;;;;;;;;4934323;29;20055;-72
2021/12/14 06:23:43;;;;;;;10.88;5.38;;;;;;;;;;4914924;29;20071;-71
2021/12/14 06:26:19;;;;;;;12.63;5.25;;;;;;;;;;4896900;29;20051;-74
2021/12/14 06:28:50;;;;;;;11.15;6.30;;;;;;;;;;4883515;29;20056;-71
2021/12/14 06:31:24;;;;;;;9.63;5.68;;;;;;;;;;4915486;29;20067;-71
2021/12/14 06:33:54;;;;;;;8.32;5.22;;;;;;;;;;4949975;29;20070;-71
2021/12/14 06:37:17;;;;;;;7.90;5.70;;;;;;;;;;4972565;28;20051;-71
2021/12/14 06:40:17;;;;;;;10.85;5.05;;;;;;;;;;4898483;29;20056;-70
2021/12/14 06:42:52;;;;;;;7.72;5.13;;;;;;;;;;4895920;29;20045;-70
2021/12/14 06:45:30;;;;;;;10.10;5.85;;;;;;;;;;4895485;29;20060;-71
2021/12/14 06:48:08;;;;;;;10.13;6.05;;;;;;;;;;4896139;29;20060;-71
2021/12/14 06:50:51;;;;;;;9.65;5.72;;;;;;;;;;4877016;29;20049;-71
2021/12/14 06:54:08;;;;;;;11.32;5.35;;;;;;;;;;4875715;29;20569;-71
2021/12/14 06:57:21;;;;;;;14.00;5.63;;;;;;;;;;4803222;29;20532;-71
2021/12/14 07:00:19;;;;;;;9.07;6.03;;;;;;;;;;4786335;29;20383;-71
2021/12/14 07:03:07;;;;;;;11.15;5.90;;;;;;;;;;4821339;29;20512;-71
2021/12/14 07:05:59;;;;;;;12.15;5.45;;;;;;;;;;4839546;29;20062;-71
2021/12/14 07:08:45;;;;;;;13.52;5.75;;;;;;;;;;4858454;29;20531;-71
2021/12/14 07:11:29;;;;;;;13.95;6.85;;;;;;;;;;4857964;29;20053;-71
2021/12/14 07:14:33;;;;;;;13.60;7.30;;;;;;;;;;4829242;29;20085;-71
2021/12/14 07:17:19;;;;;;;12.52;6.35;;;;;;;;;;4823343;29;20073;-72
2021/12/14 07:20:10;;;;;;;12.70;5.68;;;;;;;;;;4813191;29;20068;-72
2021/12/14 07:22:47;;;;;;;9.93;5.75;;;;;;;;;;4870275;29;20102;-71
2021/12/14 07:25:40;;;;;;;12.05;6.32;;;;;;;;;;4812540;29;20084;-72
2021/12/14 07:28:16;;;;;;;11.02;6.28;;;;;;;;;;4860834;29;20057;-72
2021/12/14 07:30:54;;;;;;;11.80;6.30;;;;;;;;;;4884991;29;20141;-72
2021/12/14 07:33:28;;;;;;;11.23;6.40;;;;;;;;;;4914523;29;20123;-71
2021/12/14 07:36:01;;;;;;;12.52;5.45;;;;;;;;;;4914209;29;20056;-71
2021/12/14 07:38:34;;;;;;;13.52;6.13;;;;;;;;;;4985756;28;20058;-71
2021/12/14 07:41:16;;;;;;;10.80;6.07;;;;;;;;;;4990792;28;20101;-72
2021/12/14 07:44:04;;;;;;;11.82;6.70;;;;;;;;;;4989044;28;20058;-71
2021/12/14 07:46:44;;;;;;;10.88;6.28;;;;;;;;;;5021295;28;20076;-73
2021/12/14 07:49:31;;;;;;;15.10;7.00;;;;;;;;;;5030389;28;20061;-75
2021/12/14 07:52:22;;;;;;;12.40;6.05;;;;;;;;;;5030259;28;20061;-72
2021/12/14 07:54:59;;;;;;;14.25;6.80;;;;;;;;;;5029989;28;20045;-73
2021/12/14 07:57:37;;;;;;;10.60;6.10;;;;;;;;;;4990713;28;20061;-72
2021/12/14 08:00:19;;;;;;;14.35;7.43;;;;;;;;;;5001876;28;20057;-71
2021/12/14 08:02:52;;;;;;;13.38;6.30;;;;;;;;;;5010533;28;20061;-71
2021/12/14 08:05:30;;;;;;;15.60;5.95;;;;;;;;;;4970741;28;20054;-72
2021/12/14 08:08:18;;;;;;;12.63;5.97;;;;;;;;;;4971190;28;20055;-75
2021/12/14 08:13:51;;;;;;;13.20;5.75;;;;;;;;;;4932730;29;20055;-71
2021/12/14 08:16:21;;;;;;;11.45;5.82;;;;;;;;;;4917092;29;20055;-72
2021/12/14 08:18:52;;;;;;;12.10;6.65;;;;;;;;;;4932795;29;20495;-73
2021/12/14 08:21:27;;;;;;;11.80;5.40;;;;;;;;;;4932679;29;20059;-72
2021/12/14 08:24:04;;;;;;;11.80;6.22;;;;;;;;;;4939160;29;20051;-72
2021/12/14 08:26:46;;;;;;;14.10;6.38;;;;;;;;;;4932170;29;20055;-72
2021/12/14 08:29:29;;;;;;;10.40;6.25;;;;;;;;;;4900918;29;20055;-71
2021/12/14 08:32:23;;;;;;;11.82;5.95;;;;;;;;;;4932162;29;20075;-72
2021/12/14 08:34:56;;;;;;;10.95;6.25;;;;;;;;;;4856872;29;20061;-73
2021/12/14 08:37:35;;;;;;;17.50;6.00;;;;;;;;;;4857357;29;20062;-73
2021/12/14 08:40:18;;;;;;;10.70;5.85;;;;;;;;;;4857433;29;20069;-73
2021/12/14 08:43:09;;;;;;;10.05;5.85;;;;;;;;;;4872286;29;20060;-73
2021/12/14 08:45:48;;;;;;;14.60;8.00;;;;;;;;;;4878576;29;20453;-71
2021/12/14 08:48:30;;;;;;;11.23;5.95;;;;;;;;;;4912773;29;20067;-72
2021/12/14 08:51:42;;;;;;;13.07;5.75;;;;;;;;;;4857711;29;20215;-72
2021/12/14 08:54:25;;;;;;;12.70;6.07;;;;;;;;;;4863160;29;20057;-73
2021/12/14 08:57:00;;;;;;;13.85;5.60;;;;;;;;;;4878881;29;20065;-72
2021/12/14 08:59:32;;;;;;;11.77;5.50;;;;;;;;;;4894227;29;20067;-72
2021/12/14 09:02:06;;;;;;;12.40;5.43;;;;;;;;;;4894124;29;20056;-72
2021/12/14 09:04:45;;;;;;;13.25;6.15;;;;;;;;;;4893841;29;20061;-72
2021/12/14 09:07:25;;;;;;;13.75;5.43;;;;;;;;;;4893892;29;20064;-71
2021/12/14 09:09:58;;;;;;;9.68;5.53;;;;;;;;;;4894044;29;20060;-72
2021/12/14 09:12:39;;;;;;;9.45;5.60;;;;;;;;;;4893992;29;20057;-72
2021/12/14 09:15:24;;;;;;;9.55;5.90;;;;;;;;;;4893609;29;20096;-72
2021/12/14 09:17:55;;;;;;;11.98;6.05;;;;;;;;;;4933748;29;20543;-72
2021/12/14 09:20:36;;;;;;;10.20;5.95;;;;;;;;;;4949975;28;20055;-72
2021/12/14 09:23:45;;;;;;;11.45;5.93;;;;;;;;;;4950332;29;20055;-72
2021/12/14 09:26:38;;;;;;;8.95;5.80;;;;;;;;;;4911637;29;20056;-72
2021/12/14 09:29:12;;;;;;;10.77;6.07;;;;;;;;;;4911733;29;20059;-77
2021/12/14 09:31:47;;;;;;;11.35;5.82;;;;;;;;;;4918005;29;20048;-72
2021/12/14 09:34:22;;;;;;;14.25;6.30;;;;;;;;;;4927008;29;20039;-72
2021/12/14 09:36:54;;;;;;;12.50;5.90;;;;;;;;;;4935713;29;20048;-72
2021/12/14 09:39:37;;;;;;;11.85;6.10;;;;;;;;;;4912814;29;20122;-73
2021/12/14 09:42:12;;;;;;;13.00;6.10;;;;;;;;;;4914874;29;20059;-71
2021/12/14 09:44:44;;;;;;;10.35;6.10;;;;;;;;;;4912636;29;20079;-71
2021/12/14 09:47:19;;;;;;;13.50;6.05;;;;;;;;;;4914747;29;20052;-72
2021/12/14 09:49:50;;;;;;;11.63;6.97;;;;;;;;;;4918967;29;20628;-72
2021/12/14 09:52:28;;;;;;;12.95;5.53;;;;;;;;;;4868705;29;20555;-72
2021/12/14 09:55:00;;;;;;;10.73;5.82;;;;;;;;;;4915517;29;20052;-72
2021/12/14 09:57:39;;;;;;;12.25;5.80;;;;;;;;;;4893440;29;20604;-74
2021/12/14 10:00:16;;;;;;;11.30;5.30;;;;;;;;;;4886592;29;20053;-72
2021/12/14 10:02:50;;;;;;;8.95;5.13;;;;;;;;;;4892692;28;20059;-72
2021/12/14 10:05:37;;;;;;;15.27;5.35;;;;;;;;;;4973123;28;20542;-71
2021/12/14 10:08:15;;;;;;;10.05;7.10;;;;;;;;;;4982910;28;20474;-72
2021/12/14 10:11:04;;;;;;;11.25;5.72;;;;;;;;;;4983173;28;20038;-71
2021/12/14 10:13:41;;;;;;;9.50;5.35;;;;;;;;;;4989905;28;20128;-72
2021/12/14 10:16:12;;;;;;;10.30;5.72;;;;;;;;;;4991768;28;20065;-72
2021/12/14 10:18:53;;;;;;;11.57;6.07;;;;;;;;;;4938505;28;20139;-72
2021/12/14 10:21:33;;;;;;;14.35;5.90;;;;;;;;;;4966340;28;20165;-70
2021/12/14 10:24:06;;;;;;;12.80;5.40;;;;;;;;;;4925005;28;20058;-70
2021/12/14 10:26:41;;;;;;;11.07;5.50;;;;;;;;;;4936760;28;20054;-70
2021/12/14 10:29:12;;;;;;;18.00;6.25;;;;;;;;;;4962569;28;20047;-71
2021/12/14 10:31:47;;;;;;;11.32;5.70;;;;;;;;;;4961740;28;20051;-70
2021/12/14 10:34:27;;;;;;;14.48;5.88;;;;;;;;;;4971184;28;20061;-71
2021/12/14 10:37:12;;;;;;;11.52;5.82;;;;;;;;;;5029766;28;20056;-71
2021/12/14 10:45:10;;;;;;;10.57;6.07;;;;;;;;;;5010994;28;20061;-70
2021/12/14 10:47:41;;;;;;;16.73;6.93;;;;;;;;;;4963550;28;20047;-71
2021/12/14 10:50:17;;;;;;;14.50;5.82;;;;;;;;;;4954623;28;20051;-70
2021/12/14 10:52:48;;;;;;;14.40;6.30;;;;;;;;;;4964089;28;20047;-70
2021/12/14 10:55:28;;;;;;;13.80;7.18;;;;;;;;;;4955356;28;20480;-71
2021/12/14 10:57:59;;;;;;;11.70;5.65;;;;;;;;;;4983381;28;20057;-70
2021/12/14 11:00:46;;;;;;;11.18;5.80;;;;;;;;;;4976216;28;20573;-70
2021/12/14 11:03:22;;;;;;;12.32;4.57;;;;;;;;;;4991402;28;20046;-69
2021/12/14 11:05:56;;;;;;;10.23;4.60;;;;;;;;;;4975711;28;20054;-70
2021/12/14 11:11:10;;;;;;;9.65;4.65;;;;;;;;;;4991605;28;20524;-69
2021/12/14 11:13:45;;;;;;;10.45;5.32;;;;;;;;;;4991816;28;20418;-69
2021/12/14 11:16:33;;;;;;;10.13;4.28;;;;;;;;;;4971701;28;20054;-69
2021/12/14 11:19:06;;;;;;;10.02;4.88;;;;;;;;;;4972038;28;20058;-69
2021/12/14 11:21:36;;;;;;;9.10;4.25;;;;;;;;;;4972041;28;20059;-69
2021/12/14 11:24:06;;;;;;;7.38;4.38;;;;;;;;;;4972789;28;20051;-68
2021/12/14 11:26:37;;;;;;;11.27;4.78;;;;;;;;;;5013553;28;20053;-70
2021/12/14 11:29:13;;;;;;;10.38;4.68;;;;;;;;;;5030606;28;20057;-68
2021/12/14 11:31:55;;;;;;;10.55;3.95;;;;;;;;;;5030070;28;20049;-67
2021/12/14 11:34:35;;;;;;;11.68;4.22;;;;;;;;;;5010579;28;20155;-68
2021/12/14 11:37:14;;;;;;;9.10;4.20;;;;;;;;;;5010940;28;20066;-67
2021/12/14 11:39:49;;;;;;;14.43;4.45;;;;;;;;;;5010636;28;20062;-68
2021/12/14 11:42:22;;;;;;;11.70;3.83;;;;;;;;;;5010691;28;20053;-69
2021/12/14 11:45:00;;;;;;;7.78;4.22;;;;;;;;;;4971340;28;20046;-68
2021/12/14 11:50:33;;;;;;;7.88;3.60;;;;;;;;;;4971385;28;20047;-68
2021/12/14 11:53:24;;;;;;;10.30;3.65;;;;;;;;;;4956950;28;20533;-68
2021/12/14 11:56:16;;;;;;;26.35;5.07;;;;;;;;;;4990819;28;20414;-68
2021/12/14 11:58:54;;;;;;;12.63;3.65;;;;;;;;;;4947696;28;20498;-70
2021/12/14 12:01:33;;;;;;;9.07;3.42;;;;;;;;;;4987759;28;20042;-67
2021/12/14 12:04:20;;;;;;;9.85;4.57;;;;;;;;;;4989959;28;20058;-67
2021/12/14 12:09:41;;;;;;;8.93;4.70;;;;;;;;;;4990376;28;20061;-67
2021/12/14 12:12:32;;;;;;;14.75;5.75;;;;;;;;;;4968815;28;20061;-68
2021/12/14 12:15:21;;;;;;;14.65;5.25;;;;;;;;;;4940468;28;20051;-67
2021/12/14 12:18:00;;;;;;;11.05;4.30;;;;;;;;;;4948590;28;20043;-69
2021/12/14 12:20:46;;;;;;;18.58;4.60;;;;;;;;;;4950931;28;20070;-67
2021/12/14 12:23:24;;;;;;;9.00;3.88;;;;;;;;;;4951357;28;20047;-68
2021/12/14 12:26:00;;;;;;;7.55;4.20;;;;;;;;;;4969623;28;20046;-67
2021/12/14 12:28:38;;;;;;;8.23;3.90;;;;;;;;;;4947469;28;20056;-67
2021/12/14 12:31:17;;;;;;;9.48;4.53;;;;;;;;;;4950711;28;20082;-69
2021/12/14 12:33:50;;;;;;;9.90;4.15;;;;;;;;;;4931715;28;20447;-68
2021/12/14 12:36:29;;;;;;;9.13;4.57;;;;;;;;;;4931904;28;20060;-67
2021/12/14 12:39:16;;;;;;;9.52;4.45;;;;;;;;;;4950557;28;20534;-69
2021/12/14 12:41:51;;;;;;;7.32;4.03;;;;;;;;;;4950785;28;20055;-69
2021/12/14 12:44:28;;;;;;;12.23;3.30;;;;;;;;;;4950312;28;20054;-68
2021/12/14 12:47:17;;;;;;;6.63;2.90;;;;;;;;;;4918840;29;20051;-69
2021/12/14 12:49:49;;;;;;;10.55;2.83;;;;;;;;;;4964301;28;20435;-68
2021/12/14 12:52:27;;;;;;;9.80;2.63;;;;;;;;;;4958569;28;20067;-68
2021/12/14 12:55:12;;;;;;;6.28;2.53;;;;;;;;;;4921237;29;20052;-65
2021/12/14 12:57:54;;;;;;;5.45;2.05;;;;;;;;;;4894214;29;20057;-66
2021/12/14 13:00:37;;;;;;;6.00;2.22;;;;;;;;;;4928317;29;20067;-66
2021/12/14 13:03:30;;;;;;;;;;;;;;;;;;4922180;29;20416;-67
2021/12/14 13:06:15;;;;;;;3.58;1.90;;;;;;;;;;4950587;28;19922;-67
2021/12/14 13:08:58;;;;;;;5.13;2.40;;;;;;;;;;4980275;28;20429;-65
2021/12/14 13:11:32;;;;;;;5.57;2.30;;;;;;;;;;5023125;28;20046;-65
2021/12/14 13:14:15;;;;;;;6.28;1.83;;;;;;;;;;5032463;28;20049;-66
2021/12/14 13:16:51;;;;;;;6.30;2.30;;;;;;;;;;5003594;28;20045;-66
2021/12/14 13:19:29;;;;;;;5.25;1.90;;;;;;;;;;5055301;28;20052;-70
2021/12/14 13:22:00;;;;;;;5.05;1.73;;;;;;;;;;5054691;28;20041;-68
2021/12/14 13:24:34;;;;;;;8.27;1.92;;;;;;;;;;5054542;28;20040;-65
2021/12/14 13:27:07;;;;;;;6.30;1.80;;;;;;;;;;5016638;28;20060;-65
2021/12/14 13:29:46;;;;;;;4.95;2.05;;;;;;;;;;5052607;28;20060;-66
2021/12/14 13:32:29;;;;;;;5.55;2.25;;;;;;;;;;5052714;28;20056;-66
2021/12/14 13:35:11;;;;;;;7.15;2.88;;;;;;;;;;5052675;28;20429;-69
2021/12/14 13:37:48;;;;;;;5.70;2.22;;;;;;;;;;5052596;28;20508;-72
2021/12/14 13:40:25;;;;;;;7.18;2.30;;;;;;;;;;4976818;28;20057;-66
2021/12/14 13:43:07;;;;;;;11.18;2.13;;;;;;;;;;4960658;28;20063;-67
2021/12/14 13:45:43;;;;;;;4.75;2.28;;;;;;;;;;4945073;28;20055;-66
2021/12/14 13:48:17;;;;;;;8.23;2.33;;;;;;;;;;4992931;28;20046;-66
2021/12/14 13:50:55;;;;;;;7.90;2.10;;;;;;;;;;4977524;28;20050;-72
2021/12/14 13:53:26;;;;;;;7.45;2.10;;;;;;;;;;4973047;28;20059;-66
2021/12/14 13:56:19;;;;;;;4.47;2.08;;;;;;;;;;4973253;28;20085;-67
2021/12/14 13:58:51;;;;;;;4.00;1.83;;;;;;;;;;4972951;28;20047;-66
2021/12/14 14:01:27;;;;;;;5.75;2.33;;;;;;;;;;4973028;28;20058;-67
2021/12/14 14:04:02;;;;;;;10.52;2.50;;;;;;;;;;4941970;28;20058;-66
2021/12/14 14:06:33;;;;;;;5.07;2.10;;;;;;;;;;4942263;29;20058;-67
2021/12/14 14:09:09;;;;;;;4.72;1.95;;;;;;;;;;4934962;29;20064;-64
2021/12/14 14:12:08;;;;;;;5.40;2.25;;;;;;;;;;4934560;29;20059;-67
2021/12/14 14:14:40;;;;;;;3.90;1.80;;;;;;;;;;4952329;29;20042;-70
2021/12/14 14:17:13;;;;;;;3.80;2.05;;;;;;;;;;4949397;29;20063;-65
2021/12/14 14:19:47;;;;;;;3.10;1.70;;;;;;;;;;4942624;29;20160;-65
2021/12/14 14:22:27;;;;;;;6.03;1.80;;;;;;;;;;4944383;29;20223;-67
2021/12/14 14:25:02;;;;;;;8.63;1.85;;;;;;;;;;4940989;29;20060;-68
2021/12/14 14:27:37;;;;;;;5.78;1.48;;;;;;;;;;4934512;29;20436;-64
2021/12/14 14:30:35;;;;;;;6.10;1.85;;;;;;;;;;4923387;29;20060;-68
2021/12/14 14:33:22;;;;;;;5.47;1.65;;;;;;;;;;4976571;28;20054;-66
2021/12/14 14:35:55;;;;;;;7.25;2.33;;;;;;;;;;4992074;28;20046;-65
2021/12/14 14:38:28;;;;;;;6.75;2.08;;;;;;;;;;5004097;28;20053;-65
2021/12/14 14:41:21;;;;;;;11.70;2.17;;;;;;;;;;5016316;28;20057;-65
2021/12/14 14:44:05;;;;;;;6.18;2.05;;;;;;;;;;4937618;29;20098;-67
2021/12/14 14:47:34;;;;;;;5.53;2.15;;;;;;;;;;4946526;28;20056;-66
2021/12/14 14:50:23;;;;;;;6.15;1.65;;;;;;;;;;4928736;29;20067;-76
2021/12/14 14:53:02;;;;;;;5.53;2.28;;;;;;;;;;4914939;29;20424;-65
2021/12/14 14:55:58;;;;;;;4.72;1.80;;;;;;;;;;4914784;29;20059;-62
2021/12/14 14:58:42;;;;;;;3.30;1.77;;;;;;;;;;4858779;29;20084;-64
2021/12/14 15:01:14;;;;;;;3.60;1.58;;;;;;;;;;4843718;29;20049;-64
2021/12/14 15:03:52;;;;;;;5.88;1.52;;;;;;;;;;4858826;29;20053;-64
2021/12/14 15:06:29;;;;;;;3.42;1.60;;;;;;;;;;4840724;29;20058;-64
2021/12/14 15:09:05;;;;;;;8.40;2.05;;;;;;;;;;4839933;29;20062;-64
2021/12/14 15:11:49;;;;;;;5.90;1.80;;;;;;;;;;4824689;29;20069;-65
2021/12/14 15:14:34;;;;;;;5.05;1.83;;;;;;;;;;4836043;29;20468;-66
2021/12/14 15:17:17;;;;;;;4.05;1.45;;;;;;;;;;4838924;29;20715;-64
2021/12/14 15:19:51;;;;;;;7.72;1.80;;;;;;;;;;4840185;29;20066;-63
2021/12/14 15:22:36;;;;;;;4.47;1.70;;;;;;;;;;4840236;29;20074;-64
2021/12/14 15:25:13;;;;;;;4.95;1.75;;;;;;;;;;4858144;29;20053;-63
2021/12/14 15:27:54;;;;;;;4.78;2.10;;;;;;;;;;4842893;29;20549;-63
2021/12/14 15:30:42;;;;;;;6.20;1.80;;;;;;;;;;4839748;29;20057;-63
2021/12/14 15:33:34;;;;;;;6.07;1.80;;;;;;;;;;4857664;29;20071;-64
2021/12/14 15:36:12;;;;;;;4.82;1.70;;;;;;;;;;4900448;29;20532;-63
2021/12/14 15:39:05;;;;;;;3.83;1.40;;;;;;;;;;4914058;29;20056;-64
2021/12/14 15:41:41;;;;;;;2.92;1.15;;;;;;;;;;4821179;29;20642;-63
2021/12/14 15:44:16;;;;;;;5.93;1.38;;;;;;;;;;4821098;29;20062;-65
2021/12/14 15:47:04;;;;;;;4.82;1.50;;;;;;;;;;4821574;29;20051;-64
2021/12/14 15:49:35;;;;;;;4.97;2.05;;;;;;;;;;4821282;29;20424;-64
2021/12/14 15:52:20;;;;;;;3.83;1.20;;;;;;;;;;4837120;29;20056;-65
2021/12/14 15:54:54;;;;;;;5.25;0.93;;;;;;;;;;4876229;29;20064;-67
2021/12/14 15:57:25;;;;;;;5.60;1.23;;;;;;;;;;4876311;29;20061;-63
2021/12/14 16:00:00;;;;;;;6.50;1.23;;;;;;;;;;4860698;29;20061;-65
2021/12/14 16:02:39;;;;;;;3.92;1.20;;;;;;;;;;4876690;29;20078;-64
2021/12/14 16:05:15;;;;;;;3.42;1.13;;;;;;;;;;4860624;29;20461;-64
2021/12/14 16:07:46;;;;;;;4.32;1.20;;;;;;;;;;4878875;29;20045;-64
2021/12/14 16:10:22;;;;;;;3.53;1.30;;;;;;;;;;4895271;29;20067;-63
2021/12/14 16:15:49;;;;;;;3.05;1.20;;;;;;;;;;4894804;29;20540;-64
2021/12/14 16:18:20;;;;;;;3.80;1.25;;;;;;;;;;4871007;29;20071;-65
2021/12/14 16:20:54;;;;;;;5.22;1.52;;;;;;;;;;4912493;28;20057;-63
2021/12/14 16:23:28;;;;;;;6.32;1.50;;;;;;;;;;4951512;29;20055;-64
2021/12/14 16:26:08;;;;;;;8.65;1.65;;;;;;;;;;4932250;29;20074;-71
2021/12/14 16:28:44;;;;;;;4.22;1.92;;;;;;;;;;4900794;29;20404;-69
2021/12/14 16:31:30;;;;;;;3.65;1.83;;;;;;;;;;4932530;29;20071;-64
2021/12/14 16:34:07;;;;;;;5.13;1.63;;;;;;;;;;4894220;29;20044;-63
2021/12/14 16:36:45;;;;;;;3.22;1.65;;;;;;;;;;4894338;29;20604;-64
2021/12/14 16:39:20;;;;;;;3.17;1.60;;;;;;;;;;4894423;29;20061;-63